UAL403 KLAX-KSEZ
Flight info
| Callsign | UAL403 |
|---|---|
| Flight time | 1h 14m |
| Altitude | 20000 |
| Route | DOTSS2 CLEEE PKE DRK |
| Aircraft | A320/M-SDE2E3FGHIJ1RWXYZ/LB1 |
Departure
| Time | 2026-05-04 04:56 |
|---|---|
| Airport | Los Angeles International Airport (KLAX) |
Arrival
| Time | 2026-05-04 06:11 |
|---|---|
| Airport | Sedona Airport (KSEZ) |
| Time | Latitude | Longitude | Altitude | Speed | Heading |
|---|---|---|---|---|---|
| 2026-05-04 04:36 | 33.93997 | -118.40241 | 129 ft | 0 kts | 41° |
| 2026-05-04 04:47 | 33.93973 | -118.40287 | 129 ft | 0 kts | 105° |
| 2026-05-04 04:47 | 33.93971 | -118.40284 | 129 ft | 1 kts | 114° |
| 2026-05-04 04:47 | 33.93970 | -118.40283 | 129 ft | 0 kts | 126° |
| 2026-05-04 04:48 | 33.93967 | -118.40283 | 125 ft | 0 kts | 158° |
| 2026-05-04 04:49 | 33.93957 | -118.40286 | 125 ft | 4 kts | 201° |
| 2026-05-04 04:49 | 33.93910 | -118.40295 | 127 ft | 9 kts | 181° |
| 2026-05-04 04:49 | 33.93857 | -118.40262 | 127 ft | 4 kts | 111° |
| 2026-05-04 04:49 | 33.93859 | -118.40196 | 129 ft | 12 kts | 81° |
| 2026-05-04 04:50 | 33.93872 | -118.40072 | 128 ft | 18 kts | 81° |
| 2026-05-04 04:50 | 33.93892 | -118.39892 | 127 ft | 24 kts | 87° |
| 2026-05-04 04:50 | 33.93906 | -118.39719 | 128 ft | 18 kts | 79° |
| 2026-05-04 04:50 | 33.93922 | -118.39621 | 129 ft | 11 kts | 80° |
| 2026-05-04 04:51 | 33.93926 | -118.39556 | 124 ft | 12 kts | 84° |
| 2026-05-04 04:51 | 33.93936 | -118.39455 | 125 ft | 13 kts | 82° |
| 2026-05-04 04:51 | 33.93949 | -118.39346 | 129 ft | 14 kts | 82° |
| 2026-05-04 04:51 | 33.93961 | -118.39230 | 127 ft | 14 kts | 83° |
| 2026-05-04 04:52 | 33.93974 | -118.39107 | 129 ft | 15 kts | 82° |
| 2026-05-04 04:52 | 33.93990 | -118.38977 | 129 ft | 16 kts | 85° |
| 2026-05-04 04:52 | 33.93998 | -118.38840 | 124 ft | 17 kts | 85° |
| 2026-05-04 04:52 | 33.94012 | -118.38696 | 124 ft | 18 kts | 77° |
| 2026-05-04 04:53 | 33.94030 | -118.38545 | 129 ft | 19 kts | 83° |
| 2026-05-04 04:53 | 33.94045 | -118.38392 | 127 ft | 11 kts | 83° |
| 2026-05-04 04:53 | 33.94050 | -118.38347 | 127 ft | 6 kts | 84° |
| 2026-05-04 04:53 | 33.94055 | -118.38285 | 127 ft | 14 kts | 83° |
| 2026-05-04 04:54 | 33.94072 | -118.38140 | 126 ft | 14 kts | 81° |
| 2026-05-04 04:54 | 33.94070 | -118.38027 | 129 ft | 13 kts | 129° |
| 2026-05-04 04:54 | 33.93991 | -118.38024 | 126 ft | 13 kts | 234° |
| 2026-05-04 04:54 | 33.93979 | -118.38110 | 129 ft | 0 kts | 267° |
| 2026-05-04 04:55 | 33.93979 | -118.38111 | 129 ft | 0 kts | 267° |
| 2026-05-04 04:55 | 33.93976 | -118.38152 | 129 ft | 30 kts | 265° |
| 2026-05-04 04:55 | 33.93900 | -118.38824 | 126 ft | 133 kts | 263° |
| 2026-05-04 04:56 | 33.93774 | -118.40226 | 366 ft | 191 kts | 266° |
| 2026-05-04 04:56 | 33.93805 | -118.41861 | 1204 ft | 197 kts | 273° |
| 2026-05-04 04:56 | 33.94152 | -118.43529 | 1858 ft | 227 kts | 301° |
| 2026-05-04 04:56 | 33.95437 | -118.44693 | 2934 ft | 241 kts | 340° |
| 2026-05-04 04:57 | 33.96978 | -118.44670 | 3953 ft | 207 kts | 20° |
| 2026-05-04 04:57 | 33.97971 | -118.43564 | 4609 ft | 195 kts | 67° |
| 2026-05-04 04:57 | 33.98032 | -118.42000 | 4940 ft | 189 kts | 113° |
| 2026-05-04 04:57 | 33.97371 | -118.40622 | 5010 ft | 192 kts | 126° |
| 2026-05-04 04:58 | 33.96582 | -118.39316 | 4997 ft | 193 kts | 128° |
| 2026-05-04 04:58 | 33.95851 | -118.37959 | 5008 ft | 194 kts | 117° |
| 2026-05-04 04:58 | 33.95377 | -118.36442 | 5006 ft | 194 kts | 104° |
| 2026-05-04 04:58 | 33.95156 | -118.34855 | 5006 ft | 192 kts | 96° |
| 2026-05-04 04:59 | 33.94860 | -118.33315 | 5000 ft | 188 kts | 122° |
| 2026-05-04 04:59 | 33.93897 | -118.32312 | 5011 ft | 185 kts | 161° |
| 2026-05-04 04:59 | 33.92645 | -118.32283 | 5008 ft | 183 kts | 200° |
| 2026-05-04 04:59 | 33.91679 | -118.33223 | 5011 ft | 185 kts | 239° |
| 2026-05-04 05:00 | 33.91264 | -118.34699 | 5015 ft | 189 kts | 257° |
| 2026-05-04 05:00 | 33.91065 | -118.36272 | 5014 ft | 190 kts | 261° |
| 2026-05-04 05:00 | 33.90643 | -118.39403 | 4987 ft | 187 kts | 244° |
| 2026-05-04 05:01 | 33.89783 | -118.40510 | 4992 ft | 183 kts | 207° |
| 2026-05-04 05:01 | 33.88570 | -118.40999 | 5007 ft | 185 kts | 193° |
| 2026-05-04 05:01 | 33.87302 | -118.41314 | 5004 ft | 187 kts | 191° |
| 2026-05-04 05:01 | 33.86021 | -118.41607 | 5014 ft | 188 kts | 191° |
| 2026-05-04 05:02 | 33.84734 | -118.41898 | 4975 ft | 188 kts | 191° |
| 2026-05-04 05:02 | 33.83448 | -118.42187 | 4974 ft | 188 kts | 191° |
| 2026-05-04 05:02 | 33.82166 | -118.42471 | 4965 ft | 187 kts | 191° |
| 2026-05-04 05:02 | 33.80872 | -118.42678 | 4969 ft | 188 kts | 180° |
| 2026-05-04 05:03 | 33.79605 | -118.42341 | 4967 ft | 189 kts | 153° |
| 2026-05-04 05:03 | 33.78680 | -118.41243 | 4959 ft | 191 kts | 114° |
| 2026-05-04 05:04 | 33.78343 | -118.36431 | 4973 ft | 195 kts | 92° |
| 2026-05-04 05:04 | 33.78330 | -118.34804 | 4972 ft | 193 kts | 92° |
| 2026-05-04 05:04 | 33.78313 | -118.33197 | 4972 ft | 192 kts | 92° |
| 2026-05-04 05:06 | 33.78119 | -118.21628 | 5016 ft | 200 kts | 91° |
| 2026-05-04 05:06 | 33.78088 | -118.19979 | 5009 ft | 201 kts | 92° |
| 2026-05-04 05:06 | 33.78065 | -118.18744 | 5005 ft | 200 kts | 91° |
| 2026-05-04 05:07 | 33.78034 | -118.17073 | 5011 ft | 199 kts | 91° |
| 2026-05-04 05:07 | 33.78003 | -118.15421 | 5341 ft | 199 kts | 91° |
| 2026-05-04 05:07 | 33.77971 | -118.13731 | 6251 ft | 204 kts | 92° |
| 2026-05-04 05:09 | 33.77615 | -117.94979 | 13248 ft | 322 kts | 94° |
| 2026-05-04 05:09 | 33.77583 | -117.92257 | 14231 ft | 329 kts | 94° |
| 2026-05-04 05:10 | 33.77540 | -117.89467 | 15036 ft | 339 kts | 95° |
| 2026-05-04 05:10 | 33.77478 | -117.86582 | 15793 ft | 351 kts | 95° |
| 2026-05-04 05:10 | 33.77412 | -117.83599 | 16575 ft | 362 kts | 96° |
| 2026-05-04 05:10 | 33.77345 | -117.80543 | 17368 ft | 372 kts | 96° |
| 2026-05-04 05:11 | 33.77275 | -117.77389 | 18178 ft | 382 kts | 96° |
| 2026-05-04 05:11 | 33.77204 | -117.74202 | 18873 ft | 391 kts | 96° |
| 2026-05-04 05:11 | 33.77131 | -117.70915 | 19646 ft | 396 kts | 96° |
| 2026-05-04 05:11 | 33.77056 | -117.67599 | 20385 ft | 399 kts | 96° |
| 2026-05-04 05:12 | 33.76980 | -117.64247 | 20850 ft | 402 kts | 96° |
| 2026-05-04 05:12 | 33.76902 | -117.60870 | 20987 ft | 404 kts | 96° |
| 2026-05-04 05:12 | 33.76823 | -117.57494 | 21015 ft | 406 kts | 96° |
| 2026-05-04 05:12 | 33.76744 | -117.54092 | 21008 ft | 407 kts | 96° |
| 2026-05-04 05:13 | 33.76663 | -117.50689 | 21010 ft | 407 kts | 96° |
| 2026-05-04 05:13 | 33.76580 | -117.47287 | 20976 ft | 407 kts | 96° |
| 2026-05-04 05:13 | 33.76497 | -117.43888 | 20966 ft | 407 kts | 96° |
| 2026-05-04 05:13 | 33.76412 | -117.40501 | 20968 ft | 406 kts | 97° |
| 2026-05-04 05:14 | 33.76326 | -117.37100 | 20976 ft | 406 kts | 97° |
| 2026-05-04 05:14 | 33.76239 | -117.33706 | 20975 ft | 406 kts | 97° |
| 2026-05-04 05:14 | 33.76152 | -117.30311 | 20976 ft | 407 kts | 97° |
| 2026-05-04 05:14 | 33.76063 | -117.26912 | 20977 ft | 407 kts | 97° |
| 2026-05-04 05:15 | 33.75973 | -117.23511 | 20978 ft | 407 kts | 97° |
| 2026-05-04 05:15 | 33.75883 | -117.20120 | 20975 ft | 407 kts | 97° |
| 2026-05-04 05:15 | 33.75791 | -117.16724 | 20920 ft | 407 kts | 97° |
| 2026-05-04 05:15 | 33.75699 | -117.13332 | 20939 ft | 405 kts | 97° |
| 2026-05-04 05:16 | 33.75607 | -117.09949 | 20932 ft | 405 kts | 97° |
| 2026-05-04 05:16 | 33.75513 | -117.06571 | 20928 ft | 404 kts | 97° |
| 2026-05-04 05:16 | 33.75418 | -117.03192 | 20931 ft | 405 kts | 97° |
| 2026-05-04 05:16 | 33.75322 | -116.99813 | 20931 ft | 405 kts | 97° |
| 2026-05-04 05:17 | 33.75226 | -116.96434 | 20911 ft | 405 kts | 97° |
| 2026-05-04 05:17 | 33.75128 | -116.93056 | 20912 ft | 404 kts | 97° |
| 2026-05-04 05:17 | 33.75030 | -116.89679 | 20915 ft | 404 kts | 97° |
| 2026-05-04 05:17 | 33.74932 | -116.86347 | 20980 ft | 404 kts | 97° |
| 2026-05-04 05:18 | 33.74831 | -116.82929 | 20986 ft | 403 kts | 96° |
| 2026-05-04 05:18 | 33.74732 | -116.79609 | 20977 ft | 403 kts | 96° |
| 2026-05-04 05:18 | 33.74631 | -116.76248 | 20962 ft | 403 kts | 96° |
| 2026-05-04 05:18 | 33.74528 | -116.72880 | 20926 ft | 402 kts | 96° |
| 2026-05-04 05:19 | 33.74424 | -116.69511 | 20914 ft | 403 kts | 97° |
| 2026-05-04 05:19 | 33.74320 | -116.66150 | 20898 ft | 403 kts | 97° |
| 2026-05-04 05:19 | 33.74215 | -116.62789 | 20875 ft | 402 kts | 97° |
| 2026-05-04 05:19 | 33.74109 | -116.59429 | 20828 ft | 402 kts | 97° |
| 2026-05-04 05:20 | 33.74002 | -116.56078 | 20840 ft | 402 kts | 96° |
| 2026-05-04 05:20 | 33.73894 | -116.52715 | 20841 ft | 402 kts | 97° |
| 2026-05-04 05:20 | 33.73784 | -116.49355 | 20812 ft | 403 kts | 97° |
| 2026-05-04 05:20 | 33.73675 | -116.45989 | 20808 ft | 404 kts | 97° |
| 2026-05-04 05:21 | 33.73563 | -116.42619 | 20806 ft | 404 kts | 97° |
| 2026-05-04 05:21 | 33.73450 | -116.39244 | 20812 ft | 404 kts | 97° |
| 2026-05-04 05:21 | 33.73338 | -116.35870 | 20785 ft | 404 kts | 97° |
| 2026-05-04 05:21 | 33.73225 | -116.32506 | 20786 ft | 404 kts | 97° |
| 2026-05-04 05:22 | 33.73111 | -116.29128 | 20784 ft | 404 kts | 97° |
| 2026-05-04 05:22 | 33.72997 | -116.25802 | 20772 ft | 404 kts | 97° |
| 2026-05-04 05:22 | 33.72879 | -116.22394 | 20793 ft | 404 kts | 97° |
| 2026-05-04 05:22 | 33.72762 | -116.19020 | 20795 ft | 404 kts | 97° |
| 2026-05-04 05:23 | 33.72645 | -116.15690 | 20796 ft | 404 kts | 96° |
| 2026-05-04 05:23 | 33.72526 | -116.12314 | 20795 ft | 405 kts | 97° |
| 2026-05-04 05:23 | 33.72429 | -116.08928 | 20792 ft | 406 kts | 92° |
| 2026-05-04 05:23 | 33.72777 | -116.05549 | 20795 ft | 410 kts | 80° |
| 2026-05-04 05:24 | 33.73504 | -116.02236 | 20786 ft | 411 kts | 73° |
| 2026-05-04 05:24 | 33.74418 | -115.98983 | 20780 ft | 411 kts | 70° |
| 2026-05-04 05:24 | 33.75407 | -115.95755 | 20757 ft | 412 kts | 70° |
| 2026-05-04 05:24 | 33.76407 | -115.92532 | 20759 ft | 413 kts | 70° |
| 2026-05-04 05:25 | 33.77423 | -115.89189 | 20763 ft | 440 kts | 70° |
| 2026-05-04 05:25 | 33.78478 | -115.85617 | 20763 ft | 466 kts | 71° |
| 2026-05-04 05:25 | 33.79565 | -115.81838 | 20760 ft | 490 kts | 71° |
| 2026-05-04 05:25 | 33.80684 | -115.77882 | 20764 ft | 509 kts | 72° |
| 2026-05-04 05:26 | 33.81831 | -115.73786 | 20754 ft | 525 kts | 72° |
| 2026-05-04 05:26 | 33.83002 | -115.69588 | 20750 ft | 532 kts | 72° |
| 2026-05-04 05:26 | 33.84178 | -115.65363 | 20751 ft | 533 kts | 72° |
| 2026-05-04 05:26 | 33.85356 | -115.61129 | 20741 ft | 532 kts | 72° |
| 2026-05-04 05:27 | 33.86530 | -115.56910 | 20744 ft | 531 kts | 72° |
| 2026-05-04 05:28 | 33.94686 | -115.27472 | 20721 ft | 529 kts | 72° |
| 2026-05-04 05:29 | 33.95843 | -115.23270 | 20713 ft | 528 kts | 72° |
| 2026-05-04 05:29 | 33.96996 | -115.19075 | 20713 ft | 528 kts | 72° |
| 2026-05-04 05:29 | 33.98147 | -115.14874 | 20711 ft | 528 kts | 72° |
| 2026-05-04 05:29 | 33.99297 | -115.10672 | 20711 ft | 528 kts | 72° |
| 2026-05-04 05:31 | 34.07306 | -114.81258 | 20706 ft | 527 kts | 72° |
| 2026-05-04 05:31 | 34.08443 | -114.77058 | 20706 ft | 527 kts | 72° |
| 2026-05-04 05:32 | 34.09578 | -114.72857 | 20702 ft | 527 kts | 72° |
| 2026-05-04 05:32 | 34.10712 | -114.68655 | 20701 ft | 527 kts | 72° |
| 2026-05-04 05:32 | 34.11845 | -114.64452 | 20701 ft | 527 kts | 72° |
| 2026-05-04 05:33 | 34.14102 | -114.56062 | 20703 ft | 523 kts | 72° |
| 2026-05-04 05:33 | 34.15220 | -114.51894 | 20703 ft | 521 kts | 72° |
| 2026-05-04 05:33 | 34.16338 | -114.47723 | 20695 ft | 521 kts | 72° |
| 2026-05-04 05:33 | 34.17448 | -114.43571 | 20697 ft | 521 kts | 73° |
| 2026-05-04 05:34 | 34.18560 | -114.39409 | 20698 ft | 521 kts | 73° |
| 2026-05-04 05:34 | 34.19656 | -114.35301 | 20702 ft | 520 kts | 73° |
| 2026-05-04 05:34 | 34.20766 | -114.31134 | 20697 ft | 520 kts | 73° |
| 2026-05-04 05:34 | 34.21871 | -114.26977 | 20698 ft | 520 kts | 73° |
| 2026-05-04 05:35 | 34.22927 | -114.22999 | 20701 ft | 519 kts | 73° |
| 2026-05-04 05:35 | 34.23929 | -114.19169 | 20705 ft | 519 kts | 73° |
| 2026-05-04 05:35 | 34.25002 | -114.15001 | 20703 ft | 519 kts | 73° |
| 2026-05-04 05:35 | 34.26066 | -114.10831 | 20708 ft | 519 kts | 74° |
| 2026-05-04 05:36 | 34.27126 | -114.06659 | 20700 ft | 519 kts | 74° |
| 2026-05-04 05:36 | 34.28184 | -114.02484 | 20709 ft | 519 kts | 74° |
| 2026-05-04 05:36 | 34.29246 | -113.98303 | 20715 ft | 519 kts | 74° |
| 2026-05-04 05:36 | 34.30303 | -113.94138 | 20713 ft | 519 kts | 74° |
| 2026-05-04 05:37 | 34.31006 | -113.91370 | 20717 ft | 519 kts | 74° |
| 2026-05-04 05:37 | 34.32065 | -113.87194 | 20721 ft | 519 kts | 74° |
| 2026-05-04 05:37 | 34.33123 | -113.83016 | 20718 ft | 519 kts | 74° |
| 2026-05-04 05:38 | 34.35234 | -113.74660 | 20718 ft | 519 kts | 74° |
| 2026-05-04 05:38 | 34.36286 | -113.70487 | 20723 ft | 518 kts | 74° |
| 2026-05-04 05:38 | 34.37336 | -113.66318 | 20721 ft | 518 kts | 74° |
| 2026-05-04 05:38 | 34.38383 | -113.62149 | 20716 ft | 518 kts | 74° |
| 2026-05-04 05:39 | 34.39429 | -113.57977 | 20727 ft | 518 kts | 74° |
| 2026-05-04 05:39 | 34.41516 | -113.49634 | 20726 ft | 518 kts | 74° |
| 2026-05-04 05:39 | 34.42558 | -113.45461 | 20737 ft | 517 kts | 74° |
| 2026-05-04 05:40 | 34.44636 | -113.37117 | 20740 ft | 518 kts | 74° |
| 2026-05-04 05:40 | 34.45672 | -113.32943 | 20749 ft | 517 kts | 74° |
| 2026-05-04 05:40 | 34.46693 | -113.28827 | 20748 ft | 517 kts | 74° |
| 2026-05-04 05:41 | 34.47740 | -113.24600 | 20747 ft | 517 kts | 74° |
| 2026-05-04 05:41 | 34.48774 | -113.20418 | 20760 ft | 517 kts | 74° |
| 2026-05-04 05:41 | 34.49788 | -113.16309 | 20759 ft | 517 kts | 74° |
| 2026-05-04 05:41 | 34.50816 | -113.12134 | 20759 ft | 517 kts | 74° |
| 2026-05-04 05:42 | 34.51842 | -113.07960 | 20773 ft | 516 kts | 74° |
| 2026-05-04 05:42 | 34.52870 | -113.03776 | 20773 ft | 517 kts | 74° |
| 2026-05-04 05:42 | 34.53894 | -112.99599 | 20781 ft | 517 kts | 74° |
| 2026-05-04 05:42 | 34.54916 | -112.95422 | 20788 ft | 516 kts | 75° |
| 2026-05-04 05:43 | 34.55937 | -112.91244 | 20792 ft | 517 kts | 75° |
| 2026-05-04 05:43 | 34.56661 | -112.86994 | 20773 ft | 514 kts | 88° |
| 2026-05-04 05:43 | 34.56629 | -112.82681 | 20790 ft | 510 kts | 96° |
| 2026-05-04 05:45 | 34.55026 | -112.52741 | 20252 ft | 497 kts | 96° |
| 2026-05-04 05:45 | 34.54818 | -112.48568 | 19527 ft | 492 kts | 96° |
| 2026-05-04 05:47 | 34.53434 | -112.21382 | 13036 ft | 423 kts | 97° |
| 2026-05-04 05:47 | 34.53250 | -112.17867 | 11749 ft | 413 kts | 97° |
| 2026-05-04 05:47 | 34.53066 | -112.14405 | 10755 ft | 409 kts | 97° |
| 2026-05-04 05:48 | 34.52885 | -112.10982 | 10165 ft | 404 kts | 97° |
| 2026-05-04 05:48 | 34.52704 | -112.07602 | 9899 ft | 400 kts | 97° |
| 2026-05-04 05:48 | 34.52524 | -112.04252 | 9839 ft | 398 kts | 97° |
| 2026-05-04 05:48 | 34.52349 | -112.00961 | 9812 ft | 374 kts | 97° |
| 2026-05-04 05:49 | 34.52224 | -111.97974 | 9800 ft | 338 kts | 93° |
| 2026-05-04 05:49 | 34.52775 | -111.95327 | 9812 ft | 317 kts | 65° |
| 2026-05-04 05:49 | 34.54235 | -111.93465 | 9829 ft | 299 kts | 32° |
| 2026-05-04 05:49 | 34.56126 | -111.92826 | 9839 ft | 278 kts | 356° |
| 2026-05-04 05:51 | 34.66369 | -112.00581 | 9878 ft | 263 kts | 8° |
| 2026-05-04 05:51 | 34.67971 | -111.99754 | 9885 ft | 243 kts | 40° |
| 2026-05-04 05:52 | 34.69201 | -111.98414 | 9900 ft | 235 kts | 49° |
| 2026-05-04 05:52 | 34.70337 | -111.96997 | 9913 ft | 234 kts | 49° |
| 2026-05-04 05:52 | 34.71465 | -111.95569 | 9670 ft | 235 kts | 48° |
| 2026-05-04 05:52 | 34.72593 | -111.94146 | 9285 ft | 232 kts | 48° |
| 2026-05-04 05:53 | 34.73688 | -111.92772 | 9017 ft | 221 kts | 48° |
| 2026-05-04 05:54 | 34.81163 | -111.83453 | 5153 ft | 212 kts | 51° |
| 2026-05-04 05:55 | 34.82163 | -111.82080 | 4897 ft | 219 kts | 47° |
| 2026-05-04 05:55 | 34.83183 | -111.80965 | 4961 ft | 178 kts | 46° |
| 2026-05-04 05:55 | 34.83959 | -111.79912 | 4799 ft | 154 kts | 46° |
| 2026-05-04 05:55 | 34.84691 | -111.79047 | 4782 ft | 135 kts | 48° |
| 2026-05-04 05:56 | 34.85270 | -111.78227 | 4971 ft | 140 kts | 52° |
| 2026-05-04 05:56 | 34.85925 | -111.77279 | 5807 ft | 149 kts | 50° |
| 2026-05-04 05:56 | 34.86611 | -111.76288 | 6659 ft | 164 kts | 50° |
| 2026-05-04 05:56 | 34.87436 | -111.75097 | 7233 ft | 202 kts | 50° |
| 2026-05-04 05:57 | 34.88381 | -111.73731 | 7893 ft | 221 kts | 50° |
| 2026-05-04 05:57 | 34.89457 | -111.72176 | 8237 ft | 260 kts | 50° |
| 2026-05-04 05:57 | 34.90672 | -111.70339 | 8739 ft | 293 kts | 56° |
| 2026-05-04 05:57 | 34.91553 | -111.68033 | 9476 ft | 308 kts | 81° |
| 2026-05-04 05:58 | 34.91461 | -111.65453 | 10391 ft | 309 kts | 112° |
| 2026-05-04 05:58 | 34.90357 | -111.63187 | 10969 ft | 317 kts | 141° |
| 2026-05-04 05:58 | 34.88484 | -111.61816 | 11576 ft | 314 kts | 167° |
| 2026-05-04 05:58 | 34.86352 | -111.61620 | 11897 ft | 306 kts | 192° |
| 2026-05-04 05:59 | 34.84426 | -111.62626 | 11972 ft | 304 kts | 217° |
| 2026-05-04 05:59 | 34.82904 | -111.64414 | 11977 ft | 305 kts | 225° |
| 2026-05-04 05:59 | 34.81382 | -111.66210 | 11980 ft | 305 kts | 220° |
| 2026-05-04 05:59 | 34.79744 | -111.67856 | 11984 ft | 305 kts | 217° |
| 2026-05-04 06:00 | 34.78030 | -111.69365 | 11985 ft | 305 kts | 214° |
| 2026-05-04 06:00 | 34.76266 | -111.70803 | 11971 ft | 305 kts | 213° |
| 2026-05-04 06:00 | 34.74484 | -111.72196 | 11975 ft | 305 kts | 212° |
| 2026-05-04 06:00 | 34.72687 | -111.73564 | 11973 ft | 305 kts | 211° |
| 2026-05-04 06:01 | 34.70876 | -111.74926 | 11966 ft | 306 kts | 211° |
| 2026-05-04 06:01 | 34.69062 | -111.76277 | 11952 ft | 306 kts | 211° |
| 2026-05-04 06:03 | 34.57298 | -111.86598 | 10409 ft | 289 kts | 242° |
| 2026-05-04 06:03 | 34.56766 | -111.88938 | 9887 ft | 288 kts | 258° |
| 2026-05-04 06:05 | 34.65907 | -112.00220 | 5911 ft | 264 kts | 355° |
| 2026-05-04 06:05 | 34.68928 | -111.98563 | 5006 ft | 227 kts | 44° |
| 2026-05-04 06:05 | 34.70021 | -111.97288 | 4689 ft | 210 kts | 47° |
| 2026-05-04 06:06 | 34.71077 | -111.95967 | 4885 ft | 211 kts | 50° |
| 2026-05-04 06:06 | 34.71945 | -111.94781 | 5595 ft | 184 kts | 53° |
| 2026-05-04 06:06 | 34.72763 | -111.93511 | 6284 ft | 203 kts | 55° |
| 2026-05-04 06:06 | 34.73660 | -111.92162 | 6647 ft | 199 kts | 51° |
| 2026-05-04 06:07 | 34.74727 | -111.90915 | 6653 ft | 212 kts | 42° |
| 2026-05-04 06:07 | 34.75826 | -111.89837 | 6410 ft | 196 kts | 38° |
| 2026-05-04 06:07 | 34.76858 | -111.88784 | 5971 ft | 190 kts | 45° |
| 2026-05-04 06:07 | 34.77756 | -111.87628 | 6003 ft | 203 kts | 49° |
| 2026-05-04 06:08 | 34.78827 | -111.86291 | 6063 ft | 236 kts | 46° |
| 2026-05-04 06:08 | 34.79943 | -111.84985 | 5992 ft | 205 kts | 47° |
| 2026-05-04 06:08 | 34.80864 | -111.83818 | 5723 ft | 185 kts | 48° |
| 2026-05-04 06:08 | 34.81732 | -111.82732 | 5419 ft | 178 kts | 47° |
| 2026-05-04 06:09 | 34.82605 | -111.81655 | 5082 ft | 174 kts | 48° |
| 2026-05-04 06:09 | 34.83458 | -111.80613 | 4822 ft | 172 kts | 53° |
| 2026-05-04 06:11 | 34.85217 | -111.78387 | 4833 ft | 11 kts | 50° |
| 2026-05-04 06:11 | 34.85282 | -111.78407 | 4837 ft | 8 kts | 310° |
| 2026-05-04 06:13 | 34.85258 | -111.78528 | 4832 ft | 0 kts | 304° |